sensor_id;sensor_type;location;lat;lon;timestamp;P1;durP1;ratioP1;P2;durP2;ratioP2
31087;SDS011;17745;55.914;37.554;2023-04-19T00:02:26;13.65;;;7.85;;
31087;SDS011;17745;55.914;37.554;2023-04-19T00:04:55;13.15;;;6.32;;
31087;SDS011;17745;55.914;37.554;2023-04-19T00:07:23;16.67;;;8.48;;
31087;SDS011;17745;55.914;37.554;2023-04-19T00:09:54;15.85;;;7.85;;
31087;SDS011;17745;55.914;37.554;2023-04-19T00:12:24;14.63;;;7.40;;
31087;SDS011;17745;55.914;37.554;2023-04-19T00:15:00;18.12;;;7.80;;
31087;SDS011;17745;55.914;37.554;2023-04-19T00:17:36;12.45;;;7.22;;
31087;SDS011;17745;55.914;37.554;2023-04-19T00:20:09;17.15;;;6.97;;
31087;SDS011;17745;55.914;37.554;2023-04-19T00:22:40;13.10;;;7.47;;
31087;SDS011;17745;55.914;37.554;2023-04-19T00:25:08;12.37;;;7.43;;
31087;SDS011;17745;55.914;37.554;2023-04-19T00:27:46;15.98;;;8.32;;
31087;SDS011;17745;55.914;37.554;2023-04-19T00:30:20;13.55;;;8.60;;
31087;SDS011;17745;55.914;37.554;2023-04-19T00:32:59;11.07;;;7.10;;
31087;SDS011;17745;55.914;37.554;2023-04-19T00:35:29;16.35;;;8.18;;
31087;SDS011;17745;55.914;37.554;2023-04-19T00:38:01;13.52;;;7.62;;
31087;SDS011;17745;55.914;37.554;2023-04-19T00:40:32;15.05;;;8.40;;
31087;SDS011;17745;55.914;37.554;2023-04-19T00:43:09;16.20;;;7.90;;
31087;SDS011;17745;55.914;37.554;2023-04-19T00:45:49;16.17;;;8.05;;
31087;SDS011;17745;55.914;37.554;2023-04-19T00:48:29;15.88;;;7.70;;
31087;SDS011;17745;55.914;37.554;2023-04-19T00:51:03;14.82;;;7.65;;
31087;SDS011;17745;55.914;37.554;2023-04-19T00:53:32;22.60;;;9.88;;
31087;SDS011;17745;55.914;37.554;2023-04-19T00:56:08;15.27;;;7.75;;
31087;SDS011;17745;55.914;37.554;2023-04-19T00:58:45;16.95;;;8.38;;
31087;SDS011;17745;55.914;37.554;2023-04-19T01:01:22;12.18;;;7.55;;
31087;SDS011;17745;55.914;37.554;2023-04-19T01:04:06;16.35;;;7.15;;
31087;SDS011;17745;55.914;37.554;2023-04-19T01:06:43;10.93;;;6.53;;
31087;SDS011;17745;55.914;37.554;2023-04-19T01:09:11;11.88;;;7.40;;
31087;SDS011;17745;55.914;37.554;2023-04-19T01:14:27;16.08;;;7.43;;
31087;SDS011;17745;55.914;37.554;2023-04-19T01:16:57;13.27;;;7.62;;
31087;SDS011;17745;55.914;37.554;2023-04-19T01:19:34;13.70;;;6.90;;
31087;SDS011;17745;55.914;37.554;2023-04-19T01:22:03;12.63;;;7.40;;
31087;SDS011;17745;55.914;37.554;2023-04-19T01:24:37;13.15;;;7.45;;
31087;SDS011;17745;55.914;37.554;2023-04-19T01:27:13;15.30;;;7.43;;
31087;SDS011;17745;55.914;37.554;2023-04-19T01:29:45;13.05;;;6.95;;
31087;SDS011;17745;55.914;37.554;2023-04-19T01:32:19;15.82;;;7.35;;
31087;SDS011;17745;55.914;37.554;2023-04-19T01:34:57;13.80;;;6.97;;
31087;SDS011;17745;55.914;37.554;2023-04-19T01:37:33;13.32;;;7.20;;
31087;SDS011;17745;55.914;37.554;2023-04-19T01:40:14;12.10;;;6.40;;
31087;SDS011;17745;55.914;37.554;2023-04-19T01:42:45;12.05;;;6.62;;
31087;SDS011;17745;55.914;37.554;2023-04-19T01:45:13;13.38;;;6.82;;
31087;SDS011;17745;55.914;37.554;2023-04-19T01:47:46;13.75;;;7.40;;
31087;SDS011;17745;55.914;37.554;2023-04-19T01:50:22;14.63;;;6.40;;
31087;SDS011;17745;55.914;37.554;2023-04-19T01:52:56;14.85;;;7.45;;
31087;SDS011;17745;55.914;37.554;2023-04-19T01:55:33;13.90;;;7.32;;
31087;SDS011;17745;55.914;37.554;2023-04-19T01:58:03;12.20;;;7.12;;
31087;SDS011;17745;55.914;37.554;2023-04-19T02:00:33;15.25;;;7.18;;
31087;SDS011;17745;55.914;37.554;2023-04-19T02:03:04;13.62;;;7.03;;
31087;SDS011;17745;55.914;37.554;2023-04-19T02:05:37;18.10;;;8.00;;
31087;SDS011;17745;55.914;37.554;2023-04-19T02:08:06;11.23;;;6.12;;
31087;SDS011;17745;55.914;37.554;2023-04-19T02:10:38;17.20;;;7.82;;
31087;SDS011;17745;55.914;37.554;2023-04-19T02:13:14;11.43;;;7.12;;
31087;SDS011;17745;55.914;37.554;2023-04-19T02:15:57;18.70;;;7.95;;
31087;SDS011;17745;55.914;37.554;2023-04-19T02:18:34;17.80;;;7.65;;
31087;SDS011;17745;55.914;37.554;2023-04-19T02:21:08;14.10;;;6.82;;
31087;SDS011;17745;55.914;37.554;2023-04-19T02:23:41;12.32;;;7.37;;
31087;SDS011;17745;55.914;37.554;2023-04-19T02:26:11;15.35;;;7.35;;
31087;SDS011;17745;55.914;37.554;2023-04-19T02:28:41;14.55;;;6.60;;
31087;SDS011;17745;55.914;37.554;2023-04-19T02:31:13;14.75;;;7.30;;
31087;SDS011;17745;55.914;37.554;2023-04-19T02:34:17;16.20;;;7.15;;
31087;SDS011;17745;55.914;37.554;2023-04-19T02:37:03;11.73;;;7.10;;
31087;SDS011;17745;55.914;37.554;2023-04-19T02:39:34;13.80;;;6.90;;
31087;SDS011;17745;55.914;37.554;2023-04-19T02:42:04;14.00;;;7.43;;
31087;SDS011;17745;55.914;37.554;2023-04-19T02:44:43;13.77;;;7.03;;
31087;SDS011;17745;55.914;37.554;2023-04-19T02:47:17;13.43;;;6.78;;
31087;SDS011;17745;55.914;37.554;2023-04-19T02:49:46;14.40;;;7.05;;
31087;SDS011;17745;55.914;37.554;2023-04-19T02:52:16;16.75;;;6.65;;
31087;SDS011;17745;55.914;37.554;2023-04-19T02:54:52;16.58;;;6.97;;
31087;SDS011;17745;55.914;37.554;2023-04-19T02:57:32;13.07;;;7.55;;
31087;SDS011;17745;55.914;37.554;2023-04-19T03:03:16;14.43;;;6.93;;
31087;SDS011;17745;55.914;37.554;2023-04-19T03:05:50;13.85;;;6.82;;
31087;SDS011;17745;55.914;37.554;2023-04-19T03:08:30;18.70;;;7.90;;
31087;SDS011;17745;55.914;37.554;2023-04-19T03:11:00;13.68;;;6.93;;
31087;SDS011;17745;55.914;37.554;2023-04-19T03:16:07;13.70;;;6.25;;
31087;SDS011;17745;55.914;37.554;2023-04-19T03:18:36;14.05;;;6.90;;
31087;SDS011;17745;55.914;37.554;2023-04-19T03:21:04;16.55;;;7.28;;
31087;SDS011;17745;55.914;37.554;2023-04-19T03:23:35;13.15;;;6.43;;
31087;SDS011;17745;55.914;37.554;2023-04-19T03:26:04;15.10;;;6.90;;
31087;SDS011;17745;55.914;37.554;2023-04-19T03:28:37;15.73;;;7.05;;
31087;SDS011;17745;55.914;37.554;2023-04-19T03:31:07;12.35;;;7.25;;
31087;SDS011;17745;55.914;37.554;2023-04-19T03:33:36;15.43;;;6.50;;
31087;SDS011;17745;55.914;37.554;2023-04-19T03:36:05;15.10;;;7.00;;
31087;SDS011;17745;55.914;37.554;2023-04-19T03:38:37;19.15;;;7.82;;
31087;SDS011;17745;55.914;37.554;2023-04-19T03:41:16;17.15;;;6.45;;
31087;SDS011;17745;55.914;37.554;2023-04-19T03:43:47;15.60;;;6.62;;
31087;SDS011;17745;55.914;37.554;2023-04-19T03:46:18;15.98;;;7.15;;
31087;SDS011;17745;55.914;37.554;2023-04-19T03:48:46;21.55;;;6.43;;
31087;SDS011;17745;55.914;37.554;2023-04-19T03:51:14;14.15;;;7.28;;
31087;SDS011;17745;55.914;37.554;2023-04-19T03:53:43;11.98;;;6.95;;
31087;SDS011;17745;55.914;37.554;2023-04-19T03:56:11;13.85;;;7.00;;
31087;SDS011;17745;55.914;37.554;2023-04-19T03:58:38;16.95;;;6.93;;
31087;SDS011;17745;55.914;37.554;2023-04-19T04:01:08;13.02;;;6.47;;
31087;SDS011;17745;55.914;37.554;2023-04-19T04:03:44;17.87;;;6.70;;
31087;SDS011;17745;55.914;37.554;2023-04-19T04:06:13;13.02;;;6.82;;
31087;SDS011;17745;55.914;37.554;2023-04-19T04:08:41;10.30;;;6.20;;
31087;SDS011;17745;55.914;37.554;2023-04-19T04:11:18;17.27;;;7.90;;
31087;SDS011;17745;55.914;37.554;2023-04-19T04:13:46;17.17;;;6.87;;
31087;SDS011;17745;55.914;37.554;2023-04-19T04:16:17;13.32;;;6.55;;
31087;SDS011;17745;55.914;37.554;2023-04-19T04:18:46;15.55;;;7.53;;
31087;SDS011;17745;55.914;37.554;2023-04-19T04:21:16;14.30;;;6.30;;
31087;SDS011;17745;55.914;37.554;2023-04-19T04:23:47;16.08;;;6.97;;
31087;SDS011;17745;55.914;37.554;2023-04-19T04:26:16;12.23;;;6.25;;
31087;SDS011;17745;55.914;37.554;2023-04-19T04:28:46;17.17;;;6.40;;
31087;SDS011;17745;55.914;37.554;2023-04-19T04:31:15;15.93;;;6.55;;
31087;SDS011;17745;55.914;37.554;2023-04-19T04:33:44;19.25;;;7.20;;
31087;SDS011;17745;55.914;37.554;2023-04-19T04:36:13;14.85;;;6.60;;
31087;SDS011;17745;55.914;37.554;2023-04-19T04:38:41;18.40;;;6.32;;
31087;SDS011;17745;55.914;37.554;2023-04-19T04:41:08;11.70;;;6.32;;
31087;SDS011;17745;55.914;37.554;2023-04-19T04:43:38;17.30;;;6.43;;
31087;SDS011;17745;55.914;37.554;2023-04-19T04:46:09;18.58;;;6.93;;
31087;SDS011;17745;55.914;37.554;2023-04-19T04:48:38;17.02;;;6.20;;
31087;SDS011;17745;55.914;37.554;2023-04-19T04:51:07;12.48;;;6.35;;
31087;SDS011;17745;55.914;37.554;2023-04-19T04:53:38;10.95;;;5.90;;
31087;SDS011;17745;55.914;37.554;2023-04-19T04:56:08;19.05;;;6.37;;
31087;SDS011;17745;55.914;37.554;2023-04-19T04:58:39;12.70;;;6.10;;
31087;SDS011;17745;55.914;37.554;2023-04-19T05:01:09;15.10;;;6.50;;
31087;SDS011;17745;55.914;37.554;2023-04-19T05:03:38;13.02;;;6.12;;
31087;SDS011;17745;55.914;37.554;2023-04-19T05:06:07;15.82;;;5.93;;
31087;SDS011;17745;55.914;37.554;2023-04-19T05:08:35;14.87;;;6.28;;
31087;SDS011;17745;55.914;37.554;2023-04-19T05:11:05;15.60;;;6.00;;
31087;SDS011;17745;55.914;37.554;2023-04-19T05:13:35;19.25;;;5.87;;
31087;SDS011;17745;55.914;37.554;2023-04-19T05:16:04;13.62;;;6.62;;
31087;SDS011;17745;55.914;37.554;2023-04-19T05:18:32;17.17;;;6.25;;
31087;SDS011;17745;55.914;37.554;2023-04-19T05:21:02;11.82;;;5.53;;
31087;SDS011;17745;55.914;37.554;2023-04-19T05:23:31;12.27;;;5.32;;
31087;SDS011;17745;55.914;37.554;2023-04-19T05:26:02;12.63;;;5.97;;
31087;SDS011;17745;55.914;37.554;2023-04-19T05:28:31;14.68;;;5.55;;
31087;SDS011;17745;55.914;37.554;2023-04-19T05:31:00;12.77;;;4.95;;
31087;SDS011;17745;55.914;37.554;2023-04-19T05:33:28;13.25;;;5.60;;
31087;SDS011;17745;55.914;37.554;2023-04-19T05:35:57;11.75;;;5.30;;
31087;SDS011;17745;55.914;37.554;2023-04-19T05:38:27;17.90;;;5.28;;
31087;SDS011;17745;55.914;37.554;2023-04-19T05:40:54;11.27;;;5.43;;
31087;SDS011;17745;55.914;37.554;2023-04-19T05:43:25;14.02;;;5.25;;
31087;SDS011;17745;55.914;37.554;2023-04-19T05:45:55;13.05;;;5.82;;
31087;SDS011;17745;55.914;37.554;2023-04-19T05:48:24;11.02;;;5.50;;
31087;SDS011;17745;55.914;37.554;2023-04-19T05:50:52;16.35;;;6.35;;
31087;SDS011;17745;55.914;37.554;2023-04-19T05:53:23;12.48;;;5.47;;
31087;SDS011;17745;55.914;37.554;2023-04-19T05:55:54;10.48;;;6.10;;
31087;SDS011;17745;55.914;37.554;2023-04-19T05:58:22;18.27;;;6.32;;
31087;SDS011;17745;55.914;37.554;2023-04-19T06:00:50;15.43;;;5.90;;
31087;SDS011;17745;55.914;37.554;2023-04-19T06:03:19;19.05;;;5.55;;
31087;SDS011;17745;55.914;37.554;2023-04-19T06:05:47;14.65;;;5.62;;
31087;SDS011;17745;55.914;37.554;2023-04-19T06:08:16;15.68;;;5.30;;
31087;SDS011;17745;55.914;37.554;2023-04-19T06:10:44;16.92;;;5.68;;
31087;SDS011;17745;55.914;37.554;2023-04-19T06:13:16;16.87;;;5.45;;
31087;SDS011;17745;55.914;37.554;2023-04-19T06:15:44;13.88;;;5.85;;
31087;SDS011;17745;55.914;37.554;2023-04-19T06:18:12;13.85;;;5.93;;
31087;SDS011;17745;55.914;37.554;2023-04-19T06:20:39;14.18;;;5.53;;
31087;SDS011;17745;55.914;37.554;2023-04-19T06:23:07;12.95;;;5.70;;
31087;SDS011;17745;55.914;37.554;2023-04-19T06:25:37;16.90;;;5.45;;
31087;SDS011;17745;55.914;37.554;2023-04-19T06:28:05;14.00;;;5.00;;
31087;SDS011;17745;55.914;37.554;2023-04-19T06:30:45;9.15;;;5.00;;
31087;SDS011;17745;55.914;37.554;2023-04-19T06:33:13;18.62;;;6.10;;
31087;SDS011;17745;55.914;37.554;2023-04-19T06:35:41;20.25;;;5.40;;
31087;SDS011;17745;55.914;37.554;2023-04-19T06:38:11;17.00;;;5.37;;
31087;SDS011;17745;55.914;37.554;2023-04-19T06:40:39;16.70;;;5.72;;
31087;SDS011;17745;55.914;37.554;2023-04-19T06:43:07;21.23;;;6.03;;
31087;SDS011;17745;55.914;37.554;2023-04-19T06:45:38;13.73;;;5.75;;
31087;SDS011;17745;55.914;37.554;2023-04-19T06:48:07;15.40;;;6.07;;
31087;SDS011;17745;55.914;37.554;2023-04-19T06:50:36;13.85;;;5.35;;
31087;SDS011;17745;55.914;37.554;2023-04-19T06:53:07;9.65;;;5.30;;
31087;SDS011;17745;55.914;37.554;2023-04-19T06:55:37;15.38;;;5.03;;
31087;SDS011;17745;55.914;37.554;2023-04-19T06:58:05;10.02;;;4.70;;
31087;SDS011;17745;55.914;37.554;2023-04-19T07:00:36;10.52;;;5.40;;
31087;SDS011;17745;55.914;37.554;2023-04-19T07:03:04;12.37;;;5.22;;
31087;SDS011;17745;55.914;37.554;2023-04-19T07:05:36;11.40;;;5.30;;
31087;SDS011;17745;55.914;37.554;2023-04-19T07:08:04;16.05;;;5.22;;
31087;SDS011;17745;55.914;37.554;2023-04-19T07:10:35;16.45;;;5.50;;
31087;SDS011;17745;55.914;37.554;2023-04-19T07:13:04;10.63;;;5.00;;
31087;SDS011;17745;55.914;37.554;2023-04-19T07:15:35;9.55;;;5.35;;
31087;SDS011;17745;55.914;37.554;2023-04-19T07:18:11;15.45;;;4.62;;
31087;SDS011;17745;55.914;37.554;2023-04-19T07:20:49;16.10;;;5.18;;
31087;SDS011;17745;55.914;37.554;2023-04-19T07:23:27;12.52;;;5.47;;
31087;SDS011;17745;55.914;37.554;2023-04-19T07:25:56;12.27;;;4.85;;
31087;SDS011;17745;55.914;37.554;2023-04-19T07:28:27;13.05;;;4.85;;
31087;SDS011;17745;55.914;37.554;2023-04-19T07:30:58;11.20;;;4.68;;
31087;SDS011;17745;55.914;37.554;2023-04-19T07:33:28;12.35;;;4.75;;
31087;SDS011;17745;55.914;37.554;2023-04-19T07:35:58;8.40;;;4.57;;
31087;SDS011;17745;55.914;37.554;2023-04-19T07:38:28;7.85;;;4.30;;
31087;SDS011;17745;55.914;37.554;2023-04-19T07:40:57;14.38;;;5.00;;
31087;SDS011;17745;55.914;37.554;2023-04-19T07:43:27;14.20;;;4.72;;
31087;SDS011;17745;55.914;37.554;2023-04-19T07:45:57;10.52;;;5.12;;
31087;SDS011;17745;55.914;37.554;2023-04-19T07:48:25;9.85;;;4.50;;
31087;SDS011;17745;55.914;37.554;2023-04-19T07:50:53;8.63;;;4.28;;
31087;SDS011;17745;55.914;37.554;2023-04-19T07:53:27;12.15;;;4.47;;
31087;SDS011;17745;55.914;37.554;2023-04-19T07:55:55;9.18;;;4.57;;
31087;SDS011;17745;55.914;37.554;2023-04-19T07:58:23;12.23;;;4.28;;
31087;SDS011;17745;55.914;37.554;2023-04-19T08:00:52;7.45;;;3.95;;
31087;SDS011;17745;55.914;37.554;2023-04-19T08:03:22;6.87;;;4.00;;
31087;SDS011;17745;55.914;37.554;2023-04-19T08:05:52;8.88;;;4.60;;
31087;SDS011;17745;55.914;37.554;2023-04-19T08:08:26;8.40;;;4.28;;
31087;SDS011;17745;55.914;37.554;2023-04-19T08:10:56;9.65;;;4.28;;
31087;SDS011;17745;55.914;37.554;2023-04-19T08:13:28;10.43;;;4.78;;
31087;SDS011;17745;55.914;37.554;2023-04-19T08:15:56;10.68;;;4.60;;
31087;SDS011;17745;55.914;37.554;2023-04-19T08:18:24;10.43;;;4.50;;
31087;SDS011;17745;55.914;37.554;2023-04-19T08:21:01;9.48;;;4.32;;
31087;SDS011;17745;55.914;37.554;2023-04-19T08:23:43;10.80;;;4.70;;
31087;SDS011;17745;55.914;37.554;2023-04-19T08:26:16;7.93;;;4.05;;
31087;SDS011;17745;55.914;37.554;2023-04-19T08:28:47;8.00;;;4.10;;
31087;SDS011;17745;55.914;37.554;2023-04-19T08:31:20;7.93;;;3.70;;
31087;SDS011;17745;55.914;37.554;2023-04-19T08:33:49;12.48;;;5.40;;
31087;SDS011;17745;55.914;37.554;2023-04-19T08:36:18;15.27;;;4.57;;
31087;SDS011;17745;55.914;37.554;2023-04-19T08:38:51;8.85;;;4.75;;
31087;SDS011;17745;55.914;37.554;2023-04-19T08:41:21;10.23;;;4.55;;
31087;SDS011;17745;55.914;37.554;2023-04-19T08:43:51;11.35;;;4.30;;
31087;SDS011;17745;55.914;37.554;2023-04-19T08:46:24;10.32;;;4.37;;
31087;SDS011;17745;55.914;37.554;2023-04-19T08:48:55;11.43;;;4.60;;
31087;SDS011;17745;55.914;37.554;2023-04-19T08:51:25;9.93;;;4.45;;
31087;SDS011;17745;55.914;37.554;2023-04-19T08:53:57;8.20;;;4.53;;
31087;SDS011;17745;55.914;37.554;2023-04-19T08:56:28;11.48;;;4.32;;
31087;SDS011;17745;55.914;37.554;2023-04-19T08:58:57;10.45;;;4.20;;
31087;SDS011;17745;55.914;37.554;2023-04-19T09:01:29;11.23;;;4.60;;
31087;SDS011;17745;55.914;37.554;2023-04-19T09:03:57;12.77;;;5.20;;
31087;SDS011;17745;55.914;37.554;2023-04-19T09:06:27;8.00;;;4.18;;
31087;SDS011;17745;55.914;37.554;2023-04-19T09:09:04;9.05;;;4.47;;
31087;SDS011;17745;55.914;37.554;2023-04-19T09:11:41;8.10;;;4.50;;
31087;SDS011;17745;55.914;37.554;2023-04-19T09:14:10;14.73;;;4.53;;
31087;SDS011;17745;55.914;37.554;2023-04-19T09:16:39;7.87;;;4.32;;
31087;SDS011;17745;55.914;37.554;2023-04-19T09:19:10;8.65;;;4.97;;
31087;SDS011;17745;55.914;37.554;2023-04-19T09:21:39;7.62;;;4.53;;
31087;SDS011;17745;55.914;37.554;2023-04-19T09:24:09;8.20;;;4.68;;
31087;SDS011;17745;55.914;37.554;2023-04-19T09:26:40;7.70;;;4.55;;
31087;SDS011;17745;55.914;37.554;2023-04-19T09:29:36;6.95;;;4.28;;
31087;SDS011;17745;55.914;37.554;2023-04-19T09:32:05;9.73;;;4.45;;
31087;SDS011;17745;55.914;37.554;2023-04-19T09:34:34;6.78;;;3.97;;
31087;SDS011;17745;55.914;37.554;2023-04-19T09:37:10;9.38;;;4.62;;
31087;SDS011;17745;55.914;37.554;2023-04-19T09:39:43;8.90;;;5.00;;
31087;SDS011;17745;55.914;37.554;2023-04-19T09:42:16;11.40;;;5.00;;
31087;SDS011;17745;55.914;37.554;2023-04-19T09:44:55;11.80;;;4.18;;
31087;SDS011;17745;55.914;37.554;2023-04-19T09:47:24;20.20;;;4.78;;
31087;SDS011;17745;55.914;37.554;2023-04-19T09:50:06;13.62;;;5.87;;
31087;SDS011;17745;55.914;37.554;2023-04-19T09:52:36;7.53;;;3.85;;
31087;SDS011;17745;55.914;37.554;2023-04-19T09:55:10;10.15;;;5.28;;
31087;SDS011;17745;55.914;37.554;2023-04-19T09:57:40;12.65;;;5.45;;
31087;SDS011;17745;55.914;37.554;2023-04-19T10:00:11;8.82;;;5.12;;
31087;SDS011;17745;55.914;37.554;2023-04-19T10:02:43;7.95;;;4.37;;
31087;SDS011;17745;55.914;37.554;2023-04-19T10:05:35;11.12;;;5.03;;
31087;SDS011;17745;55.914;37.554;2023-04-19T10:08:12;11.82;;;5.05;;
31087;SDS011;17745;55.914;37.554;2023-04-19T10:10:44;10.93;;;4.65;;
31087;SDS011;17745;55.914;37.554;2023-04-19T10:13:20;8.85;;;4.20;;
31087;SDS011;17745;55.914;37.554;2023-04-19T10:15:50;11.52;;;5.03;;
31087;SDS011;17745;55.914;37.554;2023-04-19T10:18:18;9.98;;;4.60;;
31087;SDS011;17745;55.914;37.554;2023-04-19T10:20:52;11.55;;;4.80;;
31087;SDS011;17745;55.914;37.554;2023-04-19T10:23:25;7.18;;;4.22;;
31087;SDS011;17745;55.914;37.554;2023-04-19T10:25:57;8.88;;;4.15;;
31087;SDS011;17745;55.914;37.554;2023-04-19T10:28:26;9.98;;;4.45;;
31087;SDS011;17745;55.914;37.554;2023-04-19T10:30:57;10.25;;;5.10;;
31087;SDS011;17745;55.914;37.554;2023-04-19T10:33:29;17.35;;;4.62;;
31087;SDS011;17745;55.914;37.554;2023-04-19T10:35:58;8.10;;;4.62;;
31087;SDS011;17745;55.914;37.554;2023-04-19T10:38:34;10.02;;;4.60;;
31087;SDS011;17745;55.914;37.554;2023-04-19T10:41:07;6.70;;;3.87;;
31087;SDS011;17745;55.914;37.554;2023-04-19T10:43:42;15.18;;;4.70;;
31087;SDS011;17745;55.914;37.554;2023-04-19T10:49:05;11.95;;;4.03;;
31087;SDS011;17745;55.914;37.554;2023-04-19T10:51:39;13.80;;;4.32;;
31087;SDS011;17745;55.914;37.554;2023-04-19T10:54:09;13.48;;;6.37;;
31087;SDS011;17745;55.914;37.554;2023-04-19T10:56:59;11.70;;;4.40;;
31087;SDS011;17745;55.914;37.554;2023-04-19T10:59:29;6.95;;;3.65;;
31087;SDS011;17745;55.914;37.554;2023-04-19T11:01:59;12.37;;;4.15;;
31087;SDS011;17745;55.914;37.554;2023-04-19T11:07:38;10.63;;;4.60;;
31087;SDS011;17745;55.914;37.554;2023-04-19T11:10:08;12.07;;;4.28;;
31087;SDS011;17745;55.914;37.554;2023-04-19T11:12:43;9.73;;;4.57;;
31087;SDS011;17745;55.914;37.554;2023-04-19T11:15:12;8.77;;;4.10;;
31087;SDS011;17745;55.914;37.554;2023-04-19T11:17:41;6.53;;;3.70;;
31087;SDS011;17745;55.914;37.554;2023-04-19T11:20:14;9.40;;;4.50;;
31087;SDS011;17745;55.914;37.554;2023-04-19T11:22:43;7.68;;;4.15;;
31087;SDS011;17745;55.914;37.554;2023-04-19T11:25:16;8.18;;;4.28;;
31087;SDS011;17745;55.914;37.554;2023-04-19T11:27:50;9.95;;;4.30;;
31087;SDS011;17745;55.914;37.554;2023-04-19T11:30:21;9.10;;;4.40;;
31087;SDS011;17745;55.914;37.554;2023-04-19T11:32:59;7.45;;;4.03;;
31087;SDS011;17745;55.914;37.554;2023-04-19T11:35:29;8.65;;;4.57;;
31087;SDS011;17745;55.914;37.554;2023-04-19T11:37:58;6.87;;;3.50;;
31087;SDS011;17745;55.914;37.554;2023-04-19T11:40:26;7.25;;;3.03;;
31087;SDS011;17745;55.914;37.554;2023-04-19T11:42:58;10.07;;;4.18;;
31087;SDS011;17745;55.914;37.554;2023-04-19T11:45:29;7.93;;;4.50;;
31087;SDS011;17745;55.914;37.554;2023-04-19T11:48:02;8.48;;;4.00;;
31087;SDS011;17745;55.914;37.554;2023-04-19T11:50:35;9.32;;;4.40;;
31087;SDS011;17745;55.914;37.554;2023-04-19T11:53:14;12.80;;;4.15;;
31087;SDS011;17745;55.914;37.554;2023-04-19T11:55:52;7.10;;;3.62;;
31087;SDS011;17745;55.914;37.554;2023-04-19T11:58:27;8.15;;;3.80;;
31087;SDS011;17745;55.914;37.554;2023-04-19T12:01:02;6.37;;;3.92;;
31087;SDS011;17745;55.914;37.554;2023-04-19T12:03:38;7.28;;;4.28;;
31087;SDS011;17745;55.914;37.554;2023-04-19T12:06:16;7.10;;;3.45;;
31087;SDS011;17745;55.914;37.554;2023-04-19T12:08:47;6.68;;;3.10;;
31087;SDS011;17745;55.914;37.554;2023-04-19T12:11:16;8.90;;;3.58;;
31087;SDS011;17745;55.914;37.554;2023-04-19T12:16:36;8.65;;;3.90;;
31087;SDS011;17745;55.914;37.554;2023-04-19T12:19:09;7.10;;;3.67;;
31087;SDS011;17745;55.914;37.554;2023-04-19T12:21:44;6.50;;;2.67;;
31087;SDS011;17745;55.914;37.554;2023-04-19T12:24:16;8.82;;;3.97;;
31087;SDS011;17745;55.914;37.554;2023-04-19T12:26:52;6.62;;;3.50;;
31087;SDS011;17745;55.914;37.554;2023-04-19T12:29:23;7.03;;;3.33;;
31087;SDS011;17745;55.914;37.554;2023-04-19T12:31:52;10.85;;;4.90;;
31087;SDS011;17745;55.914;37.554;2023-04-19T12:34:20;7.18;;;3.75;;
31087;SDS011;17745;55.914;37.554;2023-04-19T12:36:49;7.68;;;3.72;;
31087;SDS011;17745;55.914;37.554;2023-04-19T12:39:17;8.20;;;3.40;;
31087;SDS011;17745;55.914;37.554;2023-04-19T12:41:47;8.50;;;3.92;;
31087;SDS011;17745;55.914;37.554;2023-04-19T12:44:17;7.87;;;3.72;;
31087;SDS011;17745;55.914;37.554;2023-04-19T12:46:47;8.75;;;3.87;;
31087;SDS011;17745;55.914;37.554;2023-04-19T12:49:16;5.90;;;2.87;;
31087;SDS011;17745;55.914;37.554;2023-04-19T12:51:46;7.72;;;4.12;;
31087;SDS011;17745;55.914;37.554;2023-04-19T12:54:17;8.90;;;3.90;;
31087;SDS011;17745;55.914;37.554;2023-04-19T12:56:45;6.82;;;3.75;;
31087;SDS011;17745;55.914;37.554;2023-04-19T12:59:13;7.70;;;3.80;;
31087;SDS011;17745;55.914;37.554;2023-04-19T13:01:41;6.87;;;3.12;;
31087;SDS011;17745;55.914;37.554;2023-04-19T13:04:10;7.75;;;3.65;;
31087;SDS011;17745;55.914;37.554;2023-04-19T13:06:41;6.47;;;3.35;;
31087;SDS011;17745;55.914;37.554;2023-04-19T13:10:24;7.00;;;3.70;;
31087;SDS011;17745;55.914;37.554;2023-04-19T13:12:23;8.52;;;3.45;;
31087;SDS011;17745;55.914;37.554;2023-04-19T13:14:52;11.25;;;4.30;;
31087;SDS011;17745;55.914;37.554;2023-04-19T13:17:20;10.75;;;4.00;;
31087;SDS011;17745;55.914;37.554;2023-04-19T13:19:49;8.93;;;3.85;;
31087;SDS011;17745;55.914;37.554;2023-04-19T13:22:20;10.70;;;3.85;;
31087;SDS011;17745;55.914;37.554;2023-04-19T13:24:48;6.12;;;3.40;;
31087;SDS011;17745;55.914;37.554;2023-04-19T13:27:16;7.75;;;3.42;;
31087;SDS011;17745;55.914;37.554;2023-04-19T13:29:48;6.85;;;3.33;;
31087;SDS011;17745;55.914;37.554;2023-04-19T13:32:16;7.85;;;3.67;;
31087;SDS011;17745;55.914;37.554;2023-04-19T13:34:44;8.98;;;4.00;;
31087;SDS011;17745;55.914;37.554;2023-04-19T13:37:33;8.45;;;5.20;;
31087;SDS011;17745;55.914;37.554;2023-04-19T13:40:01;11.40;;;7.05;;
31087;SDS011;17745;55.914;37.554;2023-04-19T13:42:48;12.63;;;4.60;;
31087;SDS011;17745;55.914;37.554;2023-04-19T13:48:04;7.03;;;3.25;;
31087;SDS011;17745;55.914;37.554;2023-04-19T13:53:26;14.18;;;3.80;;
31087;SDS011;17745;55.914;37.554;2023-04-19T13:55:58;7.37;;;3.83;;
31087;SDS011;17745;55.914;37.554;2023-04-19T13:58:26;8.48;;;3.17;;
31087;SDS011;17745;55.914;37.554;2023-04-19T14:00:55;8.32;;;3.05;;
31087;SDS011;17745;55.914;37.554;2023-04-19T14:06:08;4.72;;;2.40;;
31087;SDS011;17745;55.914;37.554;2023-04-19T14:08:39;6.43;;;3.45;;
31087;SDS011;17745;55.914;37.554;2023-04-19T14:11:25;5.30;;;3.00;;
31087;SDS011;17745;55.914;37.554;2023-04-19T14:13:56;6.78;;;3.28;;
31087;SDS011;17745;55.914;37.554;2023-04-19T14:16:31;7.47;;;3.58;;
31087;SDS011;17745;55.914;37.554;2023-04-19T14:19:17;4.28;;;2.50;;
31087;SDS011;17745;55.914;37.554;2023-04-19T14:21:45;5.43;;;2.90;;
31087;SDS011;17745;55.914;37.554;2023-04-19T14:27:11;9.85;;;3.30;;
31087;SDS011;17745;55.914;37.554;2023-04-19T14:29:57;12.25;;;3.58;;
31087;SDS011;17745;55.914;37.554;2023-04-19T14:32:25;5.62;;;2.58;;
31087;SDS011;17745;55.914;37.554;2023-04-19T14:34:53;9.88;;;3.00;;
31087;SDS011;17745;55.914;37.554;2023-04-19T14:37:27;7.35;;;3.37;;
31087;SDS011;17745;55.914;37.554;2023-04-19T14:40:08;5.78;;;2.65;;
31087;SDS011;17745;55.914;37.554;2023-04-19T14:45:30;9.20;;;3.72;;
31087;SDS011;17745;55.914;37.554;2023-04-19T14:48:27;8.45;;;3.47;;
31087;SDS011;17745;55.914;37.554;2023-04-19T14:50:55;7.57;;;3.37;;
31087;SDS011;17745;55.914;37.554;2023-04-19T14:53:24;9.90;;;3.35;;
31087;SDS011;17745;55.914;37.554;2023-04-19T14:55:53;6.72;;;3.53;;
31087;SDS011;17745;55.914;37.554;2023-04-19T14:58:22;6.07;;;2.85;;
31087;SDS011;17745;55.914;37.554;2023-04-19T15:00:50;9.55;;;3.67;;
31087;SDS011;17745;55.914;37.554;2023-04-19T15:03:19;9.20;;;3.60;;
31087;SDS011;17745;55.914;37.554;2023-04-19T15:05:48;11.95;;;3.28;;
31087;SDS011;17745;55.914;37.554;2023-04-19T15:08:16;7.68;;;3.62;;
31087;SDS011;17745;55.914;37.554;2023-04-19T15:10:44;9.20;;;3.30;;
31087;SDS011;17745;55.914;37.554;2023-04-19T15:13:31;7.95;;;3.47;;
31087;SDS011;17745;55.914;37.554;2023-04-19T15:16:00;5.60;;;3.05;;
31087;SDS011;17745;55.914;37.554;2023-04-19T15:18:28;11.02;;;3.62;;
31087;SDS011;17745;55.914;37.554;2023-04-19T15:20:56;9.73;;;3.40;;
31087;SDS011;17745;55.914;37.554;2023-04-19T15:23:27;8.85;;;3.45;;
31087;SDS011;17745;55.914;37.554;2023-04-19T15:25:55;7.12;;;3.17;;